createdAt,value
2023-06-10T00:04:08.523Z,15.07
2023-06-10T00:09:12.798Z,15.06
2023-06-10T00:14:16.902Z,15.03
2023-06-10T00:19:20.841Z,14.96
2023-06-10T00:24:25.242Z,14.90
2023-06-10T00:29:29.222Z,14.88
2023-06-10T00:34:33.745Z,14.85
2023-06-10T00:39:38.843Z,14.86
2023-06-10T00:44:43.049Z,14.89
2023-06-10T00:49:49.243Z,14.94
2023-06-10T00:54:53.224Z,14.94
2023-06-10T00:59:57.439Z,14.94
2023-06-10T01:05:05.599Z,14.92
2023-06-10T01:10:32.087Z,14.92
2023-06-10T01:15:37.137Z,14.92
2023-06-10T01:20:44.539Z,14.93
2023-06-10T01:26:02.140Z,14.92
2023-06-10T01:31:23.960Z,14.91
2023-06-10T01:36:29.383Z,14.90
2023-06-10T01:41:33.728Z,14.89
2023-06-10T01:46:37.956Z,14.90
2023-06-10T01:51:42.537Z,14.92
2023-06-10T01:56:46.483Z,14.97
2023-06-10T02:01:50.256Z,15.01
2023-06-10T02:06:55.097Z,15.05
2023-06-10T02:11:59.525Z,15.08
2023-06-10T02:17:03.967Z,15.16
2023-06-10T02:22:07.715Z,15.26
2023-06-10T02:27:13.552Z,15.35
2023-06-10T02:32:21.206Z,15.50
2023-06-10T02:37:26.478Z,15.66
2023-06-10T02:42:31.568Z,15.81
2023-06-10T02:47:38.952Z,15.92
2023-06-10T02:52:43.784Z,16.00
2023-06-10T02:57:48.703Z,16.06
2023-06-10T03:02:58.973Z,16.08
2023-06-10T03:08:07.166Z,16.07
2023-06-10T03:13:12.955Z,16.08
2023-06-10T03:18:17.706Z,16.11
2023-06-10T03:23:22.442Z,16.09
2023-06-10T03:28:27.446Z,16.09
2023-06-10T03:33:32.865Z,16.17
2023-06-10T03:38:38.264Z,16.27
2023-06-10T03:43:44.152Z,16.38
2023-06-10T03:48:50.461Z,16.51
2023-06-10T03:53:54.743Z,16.61
2023-06-10T03:59:02.256Z,16.70
2023-06-10T04:04:08.730Z,16.79
2023-06-10T04:09:13.347Z,16.87
2023-06-10T04:14:18.559Z,16.93
2023-06-10T04:19:23.503Z,16.98
2023-06-10T04:24:29.564Z,17.04
2023-06-10T04:29:39.966Z,17.08
2023-06-10T04:34:46.519Z,17.09
2023-06-10T04:39:52.357Z,17.10
2023-06-10T04:44:59.198Z,17.09
2023-06-10T04:50:05.942Z,17.09
2023-06-10T04:55:12.372Z,17.10
2023-06-10T05:00:19.888Z,17.14
2023-06-10T05:05:25.110Z,17.19
2023-06-10T05:10:33.150Z,17.26
2023-06-10T05:15:39.104Z,17.35
2023-06-10T05:20:51.564Z,17.48
2023-06-10T05:25:57.406Z,17.66
2023-06-10T05:31:02.250Z,17.87
2023-06-10T05:36:07.548Z,18.08
2023-06-10T05:41:12.728Z,18.32
2023-06-10T05:46:16.777Z,18.59
2023-06-10T05:51:23.540Z,18.88
2023-06-10T05:56:27.992Z,19.28
2023-06-10T06:01:33.147Z,19.79
2023-06-10T06:06:40.171Z,20.20
2023-06-10T06:11:45.648Z,20.37
2023-06-10T06:16:49.534Z,20.42
2023-06-10T06:21:54.228Z,20.43
2023-06-10T06:27:01.137Z,20.43
2023-06-10T06:32:11.451Z,20.42
2023-06-10T06:37:27.918Z,20.47
2023-06-10T06:42:42.158Z,20.60
2023-06-10T06:47:55.238Z,20.80
2023-06-10T06:52:59.239Z,21.05
2023-06-10T06:58:05.649Z,21.23
2023-06-10T07:03:09.786Z,21.36
2023-06-10T07:08:13.977Z,21.51
2023-06-10T07:13:19.463Z,21.75
2023-06-10T07:18:23.291Z,22.01
2023-06-10T07:23:28.107Z,22.19
2023-06-10T07:28:31.962Z,22.35
2023-06-10T07:33:36.508Z,22.56
2023-06-10T07:38:42.997Z,22.86
2023-06-10T07:43:47.517Z,23.11
2023-06-10T07:48:51.580Z,23.15
2023-06-10T07:53:55.383Z,23.09
2023-06-10T07:58:59.243Z,23.17
2023-06-10T08:04:03.734Z,23.31
2023-06-10T08:09:08.651Z,23.54
2023-06-10T08:14:12.743Z,23.78
2023-06-10T08:19:16.782Z,24.23
2023-06-10T08:24:22.371Z,24.39
2023-06-10T08:29:27.145Z,24.25
2023-06-10T08:34:34.821Z,24.31
2023-06-10T08:39:38.633Z,24.56
2023-06-10T08:44:44.075Z,24.65
2023-06-10T08:49:48.862Z,24.70
2023-06-10T08:55:05.075Z,24.67
2023-06-10T09:00:23.103Z,24.75
2023-06-10T09:05:30.873Z,24.79
2023-06-10T09:10:37.333Z,24.85
2023-06-10T09:15:44.598Z,24.52
2023-06-10T09:20:49.754Z,24.15
2023-06-10T09:25:59.670Z,24.31
2023-06-10T09:31:08.874Z,24.63
2023-06-10T09:36:25.132Z,25.08
2023-06-10T09:41:37.057Z,25.42
2023-06-10T09:46:42.280Z,25.60
2023-06-10T09:51:54.071Z,25.49
2023-06-10T09:57:01.421Z,25.69
2023-06-10T10:02:09.593Z,26.23
2023-06-10T10:07:16.715Z,26.26
2023-06-10T10:12:21.078Z,26.29
2023-06-10T10:17:28.151Z,26.45
2023-06-10T10:22:39.871Z,26.73
2023-06-10T10:27:51.015Z,26.85
2023-06-10T10:33:10.310Z,26.75
2023-06-10T10:38:15.810Z,26.73
2023-06-10T10:43:20.049Z,26.58
2023-06-10T10:48:23.994Z,26.51
2023-06-10T10:53:28.070Z,26.63
2023-06-10T10:58:33.879Z,26.81
2023-06-10T11:03:50.922Z,27.04
2023-06-10T11:08:56.177Z,27.36
2023-06-10T11:14:05.960Z,27.54
2023-06-10T11:19:34.052Z,27.68
2023-06-10T11:24:39.274Z,27.88
2023-06-10T11:30:12.269Z,27.83
2023-06-10T11:35:17.139Z,27.72
2023-06-10T11:40:24.014Z,27.39
2023-06-10T11:45:27.999Z,27.41
2023-06-10T11:50:33.155Z,27.76
2023-06-10T11:55:44.726Z,28.04
2023-06-10T12:00:51.246Z,28.14
2023-06-10T12:06:24.365Z,28.39
2023-06-10T12:11:29.549Z,28.76
2023-06-10T12:16:33.559Z,28.91
2023-06-10T12:21:38.634Z,28.94
2023-06-10T12:26:47.476Z,28.60
2023-06-10T12:32:07.465Z,28.05
2023-06-10T12:37:16.451Z,27.90
2023-06-10T12:42:25.269Z,28.00
2023-06-10T12:47:37.292Z,28.10
2023-06-10T12:52:42.561Z,28.18
2023-06-10T12:57:51.757Z,28.27
2023-06-10T13:02:55.960Z,28.15
2023-06-10T13:08:01.063Z,27.87
2023-06-10T13:13:11.437Z,27.70
2023-06-10T13:18:16.500Z,27.76
2023-06-10T13:23:24.168Z,27.83
2023-06-10T13:28:28.890Z,27.99
2023-06-10T13:33:32.882Z,28.14
2023-06-10T13:38:38.980Z,28.07
2023-06-10T13:43:43.495Z,27.96
2023-06-10T13:48:47.314Z,27.98
2023-06-10T13:53:53.324Z,28.03
2023-06-10T13:58:57.787Z,28.08
2023-06-10T14:04:02.338Z,28.08
2023-06-10T14:09:07.170Z,28.13
2023-06-10T14:14:12.389Z,28.08
2023-06-10T14:19:18.312Z,28.06
2023-06-10T14:24:24.257Z,27.97
2023-06-10T14:29:32.720Z,27.88
2023-06-10T14:34:36.875Z,27.77
2023-06-10T14:39:40.888Z,27.69
2023-06-10T14:44:44.976Z,27.67
2023-06-10T14:49:50.449Z,27.81
2023-06-10T14:54:54.713Z,27.90
2023-06-10T14:59:58.641Z,27.94
2023-06-10T15:05:02.542Z,27.95
2023-06-10T15:10:07.469Z,27.93
2023-06-10T15:15:12.244Z,28.02
2023-06-10T15:20:16.986Z,28.06
2023-06-10T15:25:30.706Z,28.01
2023-06-10T15:30:38.785Z,27.85
2023-06-10T15:35:44.902Z,27.63
2023-06-10T15:40:48.959Z,27.59
2023-06-10T15:45:52.915Z,27.58
2023-06-10T15:50:57.035Z,27.49
2023-06-10T15:56:00.931Z,27.42
2023-06-10T16:01:04.897Z,27.39
2023-06-10T16:06:08.950Z,27.32
2023-06-10T16:11:13.855Z,27.26
2023-06-10T16:16:20.847Z,27.27
2023-06-10T16:21:27.302Z,27.26
2023-06-10T16:26:31.782Z,27.23
2023-06-10T16:31:36.236Z,27.10
2023-06-10T16:36:40.904Z,26.90
2023-06-10T16:41:45.085Z,26.68
2023-06-10T16:46:49.114Z,26.92
2023-06-10T16:51:53.225Z,27.47
2023-06-10T16:56:57.242Z,27.86
2023-06-10T17:02:03.495Z,28.87
2023-06-10T17:07:07.948Z,29.91
2023-06-10T17:12:12.559Z,30.74
2023-06-10T17:17:18.907Z,30.99
2023-06-10T17:22:24.902Z,30.39
2023-06-10T17:27:28.906Z,29.42
2023-06-10T17:32:34.963Z,28.83
2023-06-10T17:37:39.679Z,28.58
2023-06-10T17:42:43.578Z,28.31
2023-06-10T17:47:50.051Z,27.59
2023-06-10T17:52:56.029Z,27.10
2023-06-10T17:58:00.078Z,26.67
2023-06-10T18:03:06.727Z,26.21
2023-06-10T18:08:11.614Z,25.74
2023-06-10T18:13:16.623Z,25.26
2023-06-10T18:18:20.613Z,24.87
2023-06-10T18:23:25.294Z,24.50
2023-06-10T18:28:31.373Z,24.12
2023-06-10T18:33:38.211Z,23.76
2023-06-10T18:38:42.135Z,23.41
2023-06-10T18:43:46.454Z,23.03
2023-06-10T18:48:51.756Z,22.65
2023-06-10T18:53:55.780Z,22.31
2023-06-10T18:59:03.101Z,21.95
2023-06-10T19:04:07.676Z,21.62
2023-06-10T19:09:15.052Z,21.34
2023-06-10T19:14:18.957Z,21.12
2023-06-10T19:19:28.657Z,20.88
2023-06-10T19:24:37.635Z,20.62
2023-06-10T19:29:44.927Z,20.39
2023-06-10T19:34:54.307Z,20.20
2023-06-10T19:40:00.993Z,20.03
2023-06-10T19:45:08.025Z,19.80
2023-06-10T19:50:13.148Z,19.57
2023-06-10T19:55:18.497Z,19.35
2023-06-10T20:00:23.600Z,19.16
2023-06-10T20:05:27.541Z,19.00
2023-06-10T20:10:31.490Z,18.85
2023-06-10T20:15:35.508Z,18.71
2023-06-10T20:20:39.480Z,18.56
2023-06-10T20:25:43.568Z,18.46
2023-06-10T20:30:48.284Z,18.38
2023-06-10T20:35:52.470Z,18.23
2023-06-10T20:40:56.450Z,18.04
2023-06-10T20:46:01.434Z,17.88
2023-06-10T20:51:05.513Z,17.78
2023-06-10T20:56:09.516Z,17.75
2023-06-10T21:01:13.505Z,17.72
2023-06-10T21:06:18.153Z,17.65
2023-06-10T21:11:22.985Z,17.53
2023-06-10T21:16:28.136Z,17.47
2023-06-10T21:21:32.071Z,17.53
2023-06-10T21:26:36.625Z,17.58
2023-06-10T21:31:41.572Z,17.64
2023-06-10T21:36:45.413Z,17.72
2023-06-10T21:41:49.611Z,17.76
2023-06-10T21:46:53.645Z,17.77
2023-06-10T21:51:57.672Z,17.75
2023-06-10T21:57:01.659Z,17.67
2023-06-10T22:02:07.529Z,17.56
2023-06-10T22:07:11.643Z,17.47
2023-06-10T22:12:19.756Z,17.42
2023-06-10T22:17:23.927Z,17.37
2023-06-10T22:22:27.924Z,17.28
2023-06-10T22:27:31.908Z,17.21
2023-06-10T22:32:36.591Z,17.17
2023-06-10T22:37:41.008Z,17.11
2023-06-10T22:42:45.585Z,17.03
2023-06-10T22:47:50.532Z,16.91
2023-06-10T22:52:55.166Z,16.80
2023-06-10T22:57:59.620Z,16.67
2023-06-10T23:03:03.796Z,16.57
2023-06-10T23:08:08.080Z,16.46
2023-06-10T23:13:12.080Z,16.36
2023-06-10T23:18:15.833Z,16.26
2023-06-10T23:23:19.688Z,16.19
2023-06-10T23:28:23.713Z,16.12
2023-06-10T23:33:29.072Z,16.05
2023-06-10T23:38:33.450Z,15.99
2023-06-10T23:43:37.297Z,15.96
2023-06-10T23:48:41.690Z,15.94
2023-06-10T23:53:46.544Z,15.90
2023-06-10T23:58:51.153Z,15.86
